Terminal Aerodrome Forecast
Issued by NWS Green Bay, WI

Home | Current Version | Previous Version | Text Only | Print | Product List | Glossary Off
Versions: 1 2 3 4 5 6 7 8 9 10 11 12 13 14 15 16

000
FTUS43 KGRB 150922 AAB
TAFGRB
TAF AMD
KGRB 150922Z 1509/1606 23009G16KT 6SM BR SCT012 WS010/24040KT
      TEMPO 1510/1514 4SM BR
     FM151400 24009KT P6SM SCT025 BKN100
     FM152000 30009KT P6SM SCT025 BKN100
     FM160000 35009KT P6SM SCT025 BKN060=

USA.gov is the U.S. government's official web portal to all federal, state and local government web resources and services.